createdAt,value
2018-12-19T00:00:46.179Z,3.00
2018-12-19T00:03:15.001Z,3.00
2018-12-19T00:05:43.777Z,2.70
2018-12-19T00:08:12.564Z,2.40
2018-12-19T00:10:41.386Z,2.30
2018-12-19T00:13:14.328Z,2.40
2018-12-19T00:15:43.204Z,2.50
2018-12-19T00:18:11.979Z,2.50
2018-12-19T00:20:41.731Z,2.40
2018-12-19T00:23:10.598Z,2.30
2018-12-19T00:25:39.428Z,2.10
2018-12-19T00:28:08.215Z,2.10
2018-12-19T00:30:37.038Z,2.10
2018-12-19T00:33:05.872Z,2.20
2018-12-19T00:35:34.722Z,2.40
2018-12-19T00:38:03.535Z,2.50
2018-12-19T00:40:32.410Z,2.50
2018-12-19T00:43:02.077Z,2.40
2018-12-19T00:45:30.899Z,2.40
2018-12-19T00:47:59.767Z,2.40
2018-12-19T00:50:28.659Z,2.60
2018-12-19T00:52:57.439Z,2.80
2018-12-19T00:55:26.344Z,2.90
2018-12-19T00:57:55.170Z,3.00
2018-12-19T01:00:24.065Z,3.20
2018-12-19T01:02:53.027Z,3.30
2018-12-19T01:05:21.910Z,3.30
2018-12-19T01:07:50.773Z,3.00
2018-12-19T01:10:19.502Z,2.70
2018-12-19T01:12:48.365Z,2.60
2018-12-19T01:15:17.158Z,2.60
2018-12-19T01:17:46.082Z,2.60
2018-12-19T01:20:14.983Z,2.50
2018-12-19T01:22:43.880Z,2.40
2018-12-19T01:25:12.706Z,2.60
2018-12-19T01:27:41.528Z,2.50
2018-12-19T01:30:10.456Z,2.40
2018-12-19T01:32:39.251Z,2.40
2018-12-19T01:35:08.154Z,2.30
2018-12-19T01:37:36.942Z,2.40
2018-12-19T01:40:06.165Z,2.50
2018-12-19T01:42:34.986Z,2.70
2018-12-19T01:45:04.052Z,2.90
2018-12-19T01:47:32.867Z,3.20
2018-12-19T01:50:01.650Z,3.40
2018-12-19T01:52:30.465Z,3.60
2018-12-19T01:54:59.261Z,3.70
2018-12-19T01:57:28.013Z,3.80
2018-12-19T01:59:56.828Z,4.00
2018-12-19T02:02:25.573Z,4.00
2018-12-19T02:04:54.550Z,4.10
2018-12-19T02:07:23.427Z,4.20
2018-12-19T02:09:52.195Z,4.10
2018-12-19T02:12:21.012Z,4.10
2018-12-19T02:14:49.836Z,4.10
2018-12-19T02:17:18.600Z,4.20
2018-12-19T02:19:47.465Z,4.10
2018-12-19T02:22:16.222Z,4.20
2018-12-19T02:24:45.134Z,3.90
2018-12-19T02:27:13.844Z,3.50
2018-12-19T02:29:42.575Z,3.30
2018-12-19T02:32:11.385Z,3.30
2018-12-19T02:34:40.262Z,3.40
2018-12-19T02:37:09.103Z,3.50
2018-12-19T02:39:37.875Z,3.50
2018-12-19T02:42:07.334Z,3.40
2018-12-19T02:44:36.235Z,3.30
2018-12-19T02:47:05.025Z,3.10
2018-12-19T02:49:33.885Z,3.30
2018-12-19T02:52:02.715Z,3.50
2018-12-19T02:54:31.506Z,3.60
2018-12-19T02:57:00.275Z,3.50
2018-12-19T02:59:29.055Z,3.30
2018-12-19T03:01:57.889Z,3.10
2018-12-19T03:04:26.645Z,3.20
2018-12-19T03:06:55.449Z,3.30
2018-12-19T03:09:24.174Z,3.30
2018-12-19T03:11:52.979Z,3.20
2018-12-19T03:14:21.775Z,3.30
2018-12-19T03:16:50.609Z,3.30
2018-12-19T03:19:19.387Z,3.30
2018-12-19T03:21:48.160Z,3.40
2018-12-19T03:24:16.997Z,3.50
2018-12-19T03:26:45.888Z,3.50
2018-12-19T03:29:14.656Z,3.60
2018-12-19T03:31:43.458Z,3.60
2018-12-19T03:34:12.249Z,3.60
2018-12-19T03:36:41.100Z,3.60
2018-12-19T03:39:09.898Z,3.70
2018-12-19T03:41:38.896Z,3.60
2018-12-19T03:44:07.684Z,3.40
2018-12-19T03:46:37.282Z,3.40
2018-12-19T03:49:06.100Z,3.40
2018-12-19T03:51:34.909Z,3.40
2018-12-19T03:54:03.661Z,3.50
2018-12-19T03:56:32.520Z,3.60
2018-12-19T03:59:01.345Z,3.60
2018-12-19T04:01:30.080Z,3.60
2018-12-19T04:03:58.868Z,3.50
2018-12-19T04:06:27.720Z,3.60
2018-12-19T04:08:56.547Z,3.70
2018-12-19T04:11:25.385Z,3.70
2018-12-19T04:13:54.241Z,3.70
2018-12-19T04:16:23.097Z,3.80
2018-12-19T04:18:51.933Z,3.70
2018-12-19T04:21:20.670Z,3.80
2018-12-19T04:23:49.384Z,3.90
2018-12-19T04:26:18.246Z,4.00
2018-12-19T04:28:47.184Z,4.20
2018-12-19T04:31:15.952Z,4.20
2018-12-19T04:33:44.859Z,4.10
2018-12-19T04:36:13.617Z,4.10
2018-12-19T04:38:42.648Z,4.10
2018-12-19T04:41:11.380Z,4.10
2018-12-19T04:43:40.198Z,4.20
2018-12-19T04:46:08.937Z,4.30
2018-12-19T04:48:37.717Z,4.40
2018-12-19T04:51:06.483Z,4.30
2018-12-19T04:53:35.266Z,4.20
2018-12-19T04:56:04.036Z,4.20
2018-12-19T04:58:32.828Z,4.10
2018-12-19T05:01:01.500Z,4.10
2018-12-19T05:03:30.283Z,4.20
2018-12-19T05:05:59.074Z,4.30
2018-12-19T05:08:27.817Z,4.40
2018-12-19T05:10:56.670Z,4.40
2018-12-19T05:13:25.392Z,4.40
2018-12-19T05:15:54.146Z,4.30
2018-12-19T05:18:22.923Z,4.30
2018-12-19T05:20:51.631Z,4.30
2018-12-19T05:23:20.302Z,4.30
2018-12-19T05:25:49.083Z,4.30
2018-12-19T05:28:17.846Z,4.30
2018-12-19T05:30:46.581Z,4.30
2018-12-19T05:33:15.442Z,4.30
2018-12-19T05:35:44.309Z,4.40
2018-12-19T05:38:13.023Z,4.40
2018-12-19T05:40:41.887Z,4.30
2018-12-19T05:43:10.667Z,4.30
2018-12-19T05:45:39.563Z,4.20
2018-12-19T05:48:08.401Z,4.20
2018-12-19T05:50:37.171Z,4.30
2018-12-19T05:53:07.749Z,4.30
2018-12-19T05:55:36.499Z,4.30
2018-12-19T05:58:05.210Z,4.30
2018-12-19T06:00:33.975Z,4.30
2018-12-19T06:03:02.812Z,4.30
2018-12-19T06:05:31.534Z,4.30
2018-12-19T06:08:01.162Z,4.30
2018-12-19T06:10:29.946Z,4.30
2018-12-19T06:12:58.954Z,4.20
2018-12-19T06:15:29.699Z,4.20
2018-12-19T06:17:59.012Z,4.30
2018-12-19T06:20:43.875Z,4.30
2018-12-19T06:23:23.371Z,4.30
2018-12-19T06:25:52.395Z,4.20
2018-12-19T06:28:21.183Z,4.30
2018-12-19T06:30:49.973Z,4.30
2018-12-19T06:33:18.642Z,4.30
2018-12-19T06:35:47.360Z,4.40
2018-12-19T06:38:16.062Z,4.30
2018-12-19T06:40:44.738Z,4.10
2018-12-19T06:43:13.524Z,4.10
2018-12-19T06:45:42.143Z,4.10
2018-12-19T06:48:11.071Z,3.90
2018-12-19T06:50:40.097Z,3.80
2018-12-19T06:53:08.867Z,3.80
2018-12-19T06:55:37.563Z,3.80
2018-12-19T06:58:07.220Z,3.90
2018-12-19T07:00:36.272Z,3.90
2018-12-19T07:03:04.981Z,4.00
2018-12-19T07:05:33.737Z,4.00
2018-12-19T07:08:02.609Z,4.00
2018-12-19T07:10:31.402Z,4.10
2018-12-19T07:13:00.268Z,4.30
2018-12-19T07:15:29.127Z,4.40
2018-12-19T07:17:58.075Z,4.50
2018-12-19T07:20:26.857Z,4.50
2018-12-19T07:22:56.064Z,4.50
2018-12-19T07:25:25.141Z,4.40
2018-12-19T07:27:53.972Z,4.40
2018-12-19T07:30:24.390Z,4.50
2018-12-19T07:32:53.202Z,4.60
2018-12-19T07:35:23.270Z,4.60
2018-12-19T07:37:53.296Z,4.40
2018-12-19T07:40:27.048Z,4.40
2018-12-19T07:42:55.870Z,4.40
2018-12-19T07:45:24.650Z,4.40
2018-12-19T07:47:53.407Z,4.50
2018-12-19T07:50:34.379Z,4.50
2018-12-19T07:56:00.859Z,4.30
2018-12-19T08:01:50.608Z,4.40
2018-12-19T08:04:20.805Z,4.40
2018-12-19T08:06:52.451Z,4.40
2018-12-19T08:09:27.451Z,4.40
2018-12-19T08:11:58.680Z,4.20
2018-12-19T08:14:31.425Z,4.20
2018-12-19T08:17:07.194Z,4.20
2018-12-19T08:19:40.370Z,4.10
2018-12-19T08:22:10.148Z,4.10
2018-12-19T08:24:42.018Z,4.10
2018-12-19T08:27:13.189Z,4.10
2018-12-19T08:29:45.196Z,4.30
2018-12-19T08:32:17.822Z,4.40
2018-12-19T08:34:47.296Z,4.30
2018-12-19T08:37:16.848Z,4.40
2018-12-19T08:39:52.016Z,4.40
2018-12-19T08:42:27.900Z,4.30
2018-12-19T08:45:04.460Z,4.20
2018-12-19T08:47:35.169Z,4.30
2018-12-19T08:50:06.461Z,4.40
2018-12-19T08:55:23.609Z,4.50
2018-12-19T08:58:02.877Z,4.50
2018-12-19T09:00:32.811Z,4.60
2018-12-19T09:03:06.385Z,4.60
2018-12-19T09:05:46.509Z,4.60
2018-12-19T09:08:19.311Z,4.70
2018-12-19T09:10:50.314Z,4.70
2018-12-19T09:13:29.432Z,4.70
2018-12-19T09:16:07.176Z,4.80
2018-12-19T09:18:47.448Z,4.90
2018-12-19T09:21:30.173Z,4.90
2018-12-19T09:24:03.114Z,4.90
2018-12-19T09:26:42.150Z,4.90
2018-12-19T09:29:20.178Z,4.90
2018-12-19T09:31:55.583Z,5.00
2018-12-19T09:34:30.761Z,5.10
2018-12-19T09:37:10.960Z,5.10
2018-12-19T09:39:39.903Z,5.20
2018-12-19T09:42:26.650Z,5.20
2018-12-19T09:45:01.182Z,5.30
2018-12-19T09:47:36.382Z,5.30
2018-12-19T09:50:12.810Z,5.30
2018-12-19T09:52:48.459Z,5.20
2018-12-19T09:55:26.240Z,5.10
2018-12-19T10:00:57.226Z,5.00
2018-12-19T10:03:35.927Z,5.10
2018-12-19T10:06:24.065Z,5.10
2018-12-19T10:09:15.000Z,5.10
2018-12-19T10:12:00.173Z,5.20
2018-12-19T10:14:39.856Z,5.10
2018-12-19T10:17:30.169Z,5.20
2018-12-19T10:20:19.998Z,5.20
2018-12-19T10:23:06.074Z,5.30
2018-12-19T10:25:34.932Z,5.20
2018-12-19T10:28:14.187Z,5.10
2018-12-19T10:30:48.114Z,5.10
2018-12-19T10:33:17.079Z,5.10
2018-12-19T10:35:46.021Z,5.20
2018-12-19T10:38:15.706Z,5.30
2018-12-19T10:40:45.675Z,5.30
2018-12-19T10:43:14.646Z,5.40
2018-12-19T10:45:44.756Z,5.40
2018-12-19T10:48:13.588Z,5.40
2018-12-19T10:50:43.698Z,5.30
2018-12-19T10:53:12.569Z,5.30
2018-12-19T10:55:42.352Z,5.30
2018-12-19T10:58:11.171Z,5.30
2018-12-19T11:00:45.141Z,5.30
2018-12-19T11:03:14.026Z,5.40
2018-12-19T11:05:43.078Z,5.40
2018-12-19T11:08:11.960Z,5.60
2018-12-19T11:10:40.793Z,5.60
2018-12-19T11:13:09.658Z,5.60
2018-12-19T11:15:38.562Z,5.70
2018-12-19T11:18:07.426Z,5.70
2018-12-19T11:20:36.300Z,5.70
2018-12-19T11:23:05.269Z,5.70
2018-12-19T11:25:34.211Z,5.80
2018-12-19T11:28:04.078Z,5.90
2018-12-19T11:30:36.806Z,5.90
2018-12-19T11:33:05.982Z,5.90
2018-12-19T11:35:35.066Z,5.90
2018-12-19T11:38:09.795Z,6.00
2018-12-19T11:40:39.782Z,6.00
2018-12-19T11:43:09.054Z,6.00
2018-12-19T11:45:39.254Z,6.10
2018-12-19T11:48:11.083Z,6.10
2018-12-19T11:50:42.819Z,6.20
2018-12-19T11:53:13.283Z,6.20
2018-12-19T11:55:42.358Z,6.10
2018-12-19T11:58:11.531Z,6.10
2018-12-19T12:00:44.645Z,6.20
2018-12-19T12:03:18.798Z,6.30
2018-12-19T12:05:50.581Z,6.30
2018-12-19T12:08:21.302Z,6.30
2018-12-19T12:10:51.153Z,6.30
2018-12-19T12:13:22.792Z,6.10
2018-12-19T12:15:53.907Z,6.10
2018-12-19T12:18:23.073Z,6.10
2018-12-19T12:20:56.398Z,6.10
2018-12-19T12:23:28.289Z,6.10
2018-12-19T12:26:01.613Z,6.10
2018-12-19T12:28:32.785Z,6.20
2018-12-19T12:31:02.131Z,6.10
2018-12-19T12:33:36.466Z,6.20
2018-12-19T12:36:06.501Z,6.20
2018-12-19T12:38:38.380Z,6.20
2018-12-19T12:41:13.343Z,6.10
2018-12-19T12:43:44.882Z,6.20
2018-12-19T12:46:15.153Z,6.20
2018-12-19T12:48:44.283Z,6.20
2018-12-19T12:51:13.208Z,6.30
2018-12-19T12:53:42.197Z,6.30
2018-12-19T12:56:11.159Z,6.20
2018-12-19T12:58:40.179Z,6.20
2018-12-19T13:01:10.176Z,6.20
2018-12-19T13:03:39.222Z,6.20
2018-12-19T13:06:08.254Z,6.20
2018-12-19T13:08:37.244Z,6.20
2018-12-19T13:11:08.969Z,6.40
2018-12-19T13:13:38.555Z,6.50
2018-12-19T13:16:09.429Z,6.50
2018-12-19T13:18:38.427Z,6.50
2018-12-19T13:21:08.500Z,6.60
2018-12-19T13:23:38.836Z,6.70
2018-12-19T13:28:59.221Z,6.60
2018-12-19T13:31:31.266Z,6.60
2018-12-19T13:34:00.856Z,6.60
2018-12-19T13:36:29.822Z,6.60
2018-12-19T13:38:58.529Z,6.60
2018-12-19T13:41:27.438Z,6.60
2018-12-19T13:43:56.466Z,6.60
2018-12-19T13:46:25.366Z,6.60
2018-12-19T13:48:54.279Z,6.50
2018-12-19T13:51:23.156Z,6.50
2018-12-19T13:53:52.957Z,6.50
2018-12-19T13:56:21.852Z,6.60
2018-12-19T13:58:51.182Z,6.70
2018-12-19T14:01:20.896Z,6.70
2018-12-19T14:03:49.901Z,6.70
2018-12-19T14:06:18.787Z,6.80
2018-12-19T14:08:47.787Z,6.70
2018-12-19T14:11:16.687Z,6.70
2018-12-19T14:13:45.566Z,6.70
2018-12-19T14:16:14.556Z,6.80
2018-12-19T14:18:43.494Z,6.80
2018-12-19T14:21:12.928Z,6.80
2018-12-19T14:23:43.039Z,6.80
2018-12-19T14:26:11.941Z,6.80
2018-12-19T14:28:40.850Z,6.80
2018-12-19T14:31:09.646Z,6.80
2018-12-19T14:33:41.461Z,6.80
2018-12-19T14:36:10.512Z,6.80
2018-12-19T14:38:39.982Z,6.80
2018-12-19T14:41:08.946Z,6.80
2018-12-19T14:43:38.461Z,6.80
2018-12-19T14:46:07.365Z,6.80
2018-12-19T14:48:38.169Z,6.80
2018-12-19T14:51:06.986Z,6.90
2018-12-19T14:53:35.756Z,6.90
2018-12-19T14:56:04.552Z,6.90
2018-12-19T14:58:33.585Z,6.90
2018-12-19T15:01:02.318Z,6.90
2018-12-19T15:03:31.296Z,6.90
2018-12-19T15:06:00.173Z,6.90
2018-12-19T15:08:28.906Z,6.90
2018-12-19T15:10:57.851Z,6.90
2018-12-19T15:13:26.926Z,6.90
2018-12-19T15:16:00.847Z,7.00
2018-12-19T15:18:30.109Z,7.00
2018-12-19T15:20:58.811Z,7.00
2018-12-19T15:23:27.740Z,7.00
2018-12-19T15:25:56.688Z,7.10
2018-12-19T15:28:25.464Z,7.10
2018-12-19T15:30:54.327Z,7.10
2018-12-19T15:33:23.262Z,7.20
2018-12-19T15:35:52.053Z,7.10
2018-12-19T15:38:20.946Z,7.10
2018-12-19T15:40:49.737Z,7.10
2018-12-19T15:43:18.541Z,7.10
2018-12-19T15:45:47.505Z,7.10
2018-12-19T15:48:16.327Z,7.00
2018-12-19T15:50:45.262Z,7.00
2018-12-19T15:53:14.764Z,7.00
2018-12-19T15:58:47.635Z,7.00
2018-12-19T16:01:16.414Z,7.10
2018-12-19T16:03:45.278Z,7.10
2018-12-19T16:06:14.178Z,7.10
2018-12-19T16:08:43.174Z,7.20
2018-12-19T16:11:11.862Z,7.20
2018-12-19T16:13:40.916Z,7.20
2018-12-19T16:16:09.854Z,7.20
2018-12-19T16:18:38.949Z,7.20
2018-12-19T16:21:07.806Z,7.20
2018-12-19T16:23:37.100Z,7.20
2018-12-19T16:26:05.891Z,7.20
2018-12-19T16:28:34.753Z,7.20
2018-12-19T16:31:03.741Z,7.20
2018-12-19T16:33:32.963Z,7.20
2018-12-19T16:36:02.009Z,7.20
2018-12-19T16:38:31.088Z,7.20
2018-12-19T16:41:00.255Z,7.30
2018-12-19T16:43:30.357Z,7.20
2018-12-19T16:46:00.447Z,7.20
2018-12-19T16:48:29.400Z,7.10
2018-12-19T16:50:58.395Z,7.00
2018-12-19T16:53:27.327Z,7.00
2018-12-19T16:55:56.300Z,6.90
2018-12-19T16:58:25.233Z,6.80
2018-12-19T17:00:54.148Z,6.80
2018-12-19T17:03:22.963Z,6.90
2018-12-19T17:05:51.859Z,6.90
2018-12-19T17:08:20.721Z,6.90
2018-12-19T17:10:49.539Z,6.90
2018-12-19T17:13:18.395Z,6.80
2018-12-19T17:15:47.304Z,6.80
2018-12-19T17:18:16.220Z,6.80
2018-12-19T17:20:45.588Z,6.90
2018-12-19T17:23:14.568Z,6.90
2018-12-19T17:25:43.299Z,6.90
2018-12-19T17:28:13.323Z,7.00
2018-12-19T17:30:42.154Z,7.00
2018-12-19T17:33:11.588Z,6.90
2018-12-19T17:35:44.226Z,6.80
2018-12-19T17:38:19.464Z,6.70
2018-12-19T17:40:50.497Z,6.70
2018-12-19T17:43:34.939Z,6.70
2018-12-19T17:49:04.475Z,6.70
2018-12-19T17:51:40.130Z,6.80
2018-12-19T17:54:09.545Z,6.80
2018-12-19T17:59:55.274Z,6.90
2018-12-19T18:02:24.364Z,6.90
2018-12-19T18:04:59.931Z,6.90
2018-12-19T18:07:36.407Z,6.90
2018-12-19T18:10:05.451Z,6.80
2018-12-19T18:12:34.435Z,6.80
2018-12-19T18:15:10.123Z,6.70
2018-12-19T18:17:40.088Z,6.70
2018-12-19T18:20:09.040Z,6.70
2018-12-19T18:22:39.767Z,6.70
2018-12-19T18:25:09.540Z,6.80
2018-12-19T18:27:40.968Z,6.80
2018-12-19T18:30:10.554Z,6.90
2018-12-19T18:32:42.939Z,7.00
2018-12-19T18:35:14.240Z,7.00
2018-12-19T18:37:44.075Z,7.00
2018-12-19T18:40:12.987Z,7.00
2018-12-19T18:42:43.987Z,6.90
2018-12-19T18:45:13.794Z,7.00
2018-12-19T18:47:43.052Z,6.90
2018-12-19T18:50:13.581Z,6.90
2018-12-19T18:52:45.405Z,6.90
2018-12-19T18:55:15.990Z,6.80
2018-12-19T18:57:46.444Z,6.80
2018-12-19T19:00:25.578Z,6.80
2018-12-19T19:03:02.523Z,6.80
2018-12-19T19:05:33.818Z,6.90
2018-12-19T19:08:04.517Z,6.90
2018-12-19T19:10:37.235Z,6.90
2018-12-19T19:13:06.381Z,6.80
2018-12-19T19:15:35.510Z,6.90
2018-12-19T19:21:02.394Z,6.70
2018-12-19T19:23:39.521Z,6.70
2018-12-19T19:26:12.565Z,6.70
2018-12-19T19:28:43.708Z,6.70
2018-12-19T19:31:13.864Z,6.80
2018-12-19T19:33:43.498Z,6.90
2018-12-19T19:36:15.028Z,6.90
2018-12-19T19:38:44.968Z,6.90
2018-12-19T19:41:35.090Z,6.90
2018-12-19T19:44:05.377Z,6.80
2018-12-19T19:46:45.524Z,6.80
2018-12-19T19:49:16.636Z,6.80
2018-12-19T19:51:45.398Z,6.70
2018-12-19T19:54:21.506Z,6.70
2018-12-19T19:56:55.069Z,6.70
2018-12-19T19:59:26.920Z,6.60
2018-12-19T20:01:58.480Z,6.50
2018-12-19T20:04:28.410Z,6.60
2018-12-19T20:07:01.106Z,6.60
2018-12-19T20:09:36.707Z,6.60
2018-12-19T20:12:05.727Z,6.60
2018-12-19T20:14:35.632Z,6.70
2018-12-19T20:17:04.821Z,6.60
2018-12-19T20:19:36.437Z,6.60
2018-12-19T20:22:05.929Z,6.70
2018-12-19T20:24:38.615Z,6.70
2018-12-19T20:27:07.884Z,6.80
2018-12-19T20:29:40.456Z,6.90
2018-12-19T20:32:11.047Z,6.80
2018-12-19T20:34:40.095Z,6.80
2018-12-19T20:37:09.300Z,6.90
2018-12-19T20:39:38.203Z,6.90
2018-12-19T20:42:07.099Z,7.00
2018-12-19T20:44:36.780Z,6.90
2018-12-19T20:47:05.778Z,6.90
2018-12-19T20:49:34.809Z,6.90
2018-12-19T20:52:03.874Z,6.90
2018-12-19T20:54:32.958Z,6.90
2018-12-19T20:57:01.899Z,7.00
2018-12-19T20:59:31.010Z,7.00
2018-12-19T21:02:18.261Z,7.00
2018-12-19T21:04:49.275Z,6.90
2018-12-19T21:07:20.318Z,7.00
2018-12-19T21:09:51.238Z,6.90
2018-12-19T21:12:20.091Z,6.90
2018-12-19T21:14:49.124Z,7.00
2018-12-19T21:20:51.090Z,6.80
2018-12-19T21:23:43.066Z,6.70
2018-12-19T21:26:26.732Z,6.80
2018-12-19T21:28:55.605Z,6.90
2018-12-19T21:40:08.027Z,6.90
2018-12-19T21:43:00.425Z,6.90
2018-12-19T21:45:42.010Z,6.80
2018-12-19T21:51:19.169Z,6.80
2018-12-19T21:54:16.949Z,6.70
2018-12-19T21:56:58.175Z,6.70
2018-12-19T21:59:39.730Z,6.70
2018-12-19T22:02:14.339Z,6.70
2018-12-19T22:04:43.283Z,6.70
2018-12-19T22:07:12.153Z,6.80
2018-12-19T22:09:41.798Z,6.80
2018-12-19T22:12:10.803Z,6.90
2018-12-19T22:14:39.649Z,6.90
2018-12-19T23:30:15.007Z,6.80
2018-12-19T23:34:12.173Z,6.80
